createdAt,value
2018-04-12T00:00:59.541Z,11.60
2018-04-12T00:03:27.954Z,11.53
2018-04-12T00:05:56.304Z,11.46
2018-04-12T00:08:24.611Z,11.43
2018-04-12T00:10:53.692Z,11.41
2018-04-12T00:13:23.174Z,11.37
2018-04-12T00:15:51.489Z,11.31
2018-04-12T00:18:20.668Z,11.27
2018-04-12T00:20:49.002Z,11.23
2018-04-12T00:23:17.331Z,11.21
2018-04-12T00:25:45.648Z,11.17
2018-04-12T00:28:14.741Z,11.16
2018-04-12T00:30:43.816Z,11.10
2018-04-12T00:33:12.122Z,11.05
2018-04-12T00:35:41.192Z,11.01
2018-04-12T00:38:09.549Z,11.02
2018-04-12T00:40:37.855Z,10.97
2018-04-12T00:43:06.856Z,10.97
2018-04-12T00:45:35.149Z,10.90
2018-04-12T00:48:04.232Z,10.89
2018-04-12T00:50:32.541Z,10.85
2018-04-12T00:53:01.620Z,10.91
2018-04-12T00:55:29.943Z,10.93
2018-04-12T00:57:58.259Z,10.96
2018-04-12T01:00:26.604Z,10.92
2018-04-12T01:02:54.923Z,10.87
2018-04-12T01:05:23.256Z,10.83
2018-04-12T01:07:52.365Z,10.80
2018-04-12T01:10:20.748Z,10.75
2018-04-12T01:12:49.054Z,10.71
2018-04-12T01:15:17.362Z,10.64
2018-04-12T01:17:45.662Z,10.57
2018-04-12T01:20:14.784Z,10.49
2018-04-12T01:22:43.102Z,10.47
2018-04-12T01:25:12.048Z,10.45
2018-04-12T01:27:40.365Z,10.43
2018-04-12T01:30:08.685Z,10.42
2018-04-12T01:32:36.982Z,10.39
2018-04-12T01:35:06.072Z,10.38
2018-04-12T01:37:35.243Z,10.37
2018-04-12T01:40:03.561Z,10.31
2018-04-12T01:42:32.620Z,10.26
2018-04-12T01:45:00.937Z,10.23
2018-04-12T01:47:30.045Z,10.21
2018-04-12T01:49:59.159Z,10.23
2018-04-12T01:52:27.499Z,10.18
2018-04-12T01:54:55.815Z,10.14
2018-04-12T01:57:24.113Z,10.12
2018-04-12T01:59:52.402Z,10.11
2018-04-12T02:02:20.726Z,10.08
2018-04-12T02:04:49.057Z,10.09
2018-04-12T02:07:17.376Z,10.04
2018-04-12T02:09:45.702Z,10.00
2018-04-12T02:12:14.017Z,10.01
2018-04-12T02:14:42.337Z,9.98
2018-04-12T02:17:11.531Z,9.98
2018-04-12T02:19:39.851Z,9.98
2018-04-12T02:22:08.246Z,10.03
2018-04-12T02:24:36.547Z,10.10
2018-04-12T02:27:04.839Z,10.18
2018-04-12T02:29:33.155Z,10.24
2018-04-12T02:32:02.265Z,10.31
2018-04-12T02:34:30.592Z,10.37
2018-04-12T02:36:58.889Z,10.44
2018-04-12T02:39:27.217Z,10.47
2018-04-12T02:41:55.525Z,10.51
2018-04-12T02:44:23.824Z,10.53
2018-04-12T02:46:52.126Z,10.53
2018-04-12T02:49:21.200Z,10.51
2018-04-12T02:51:49.597Z,10.45
2018-04-12T02:54:17.922Z,10.42
2018-04-12T02:56:46.241Z,10.38
2018-04-12T02:59:14.544Z,10.36
2018-04-12T03:01:42.900Z,10.30
2018-04-12T03:04:11.224Z,10.25
2018-04-12T03:06:40.288Z,10.18
2018-04-12T03:09:08.596Z,10.07
2018-04-12T03:11:37.674Z,9.97
2018-04-12T03:14:05.985Z,9.89
2018-04-12T03:16:35.070Z,9.83
2018-04-12T03:19:04.134Z,9.80
2018-04-12T03:21:32.471Z,9.75
2018-04-12T03:24:00.778Z,9.67
2018-04-12T03:26:29.076Z,9.64
2018-04-12T03:28:57.377Z,9.60
2018-04-12T03:31:25.690Z,9.57
2018-04-12T03:33:54.002Z,9.51
2018-04-12T03:36:22.526Z,9.49
2018-04-12T03:38:50.852Z,9.45
2018-04-12T03:41:19.149Z,9.48
2018-04-12T03:43:47.465Z,9.45
2018-04-12T03:46:15.771Z,9.45
2018-04-12T03:48:44.958Z,9.44
2018-04-12T03:51:13.917Z,9.47
2018-04-12T03:53:42.998Z,9.44
2018-04-12T03:56:11.301Z,9.41
2018-04-12T03:58:39.595Z,9.42
2018-04-12T04:01:07.934Z,9.46
2018-04-12T04:03:36.399Z,9.47
2018-04-12T04:06:05.505Z,9.45
2018-04-12T04:08:33.793Z,9.41
2018-04-12T04:11:02.128Z,9.40
2018-04-12T04:13:30.469Z,9.44
2018-04-12T04:16:16.560Z,9.43
2018-04-12T04:19:02.750Z,9.39
2018-04-12T04:21:31.050Z,9.44
2018-04-12T04:23:59.344Z,9.42
2018-04-12T04:26:28.512Z,9.41
2018-04-12T04:28:56.801Z,9.41
2018-04-12T04:31:25.125Z,9.41
2018-04-12T04:33:54.221Z,9.40
2018-04-12T04:36:23.287Z,9.35
2018-04-12T04:38:51.618Z,9.33
2018-04-12T04:41:19.934Z,9.35
2018-04-12T04:43:48.235Z,9.36
2018-04-12T04:46:16.552Z,9.34
2018-04-12T04:48:45.619Z,9.38
2018-04-12T04:51:13.933Z,9.39
2018-04-12T04:53:43.029Z,9.39
2018-04-12T04:56:12.091Z,9.42
2018-04-12T04:58:40.383Z,9.52
2018-04-12T05:01:08.707Z,9.63
2018-04-12T05:03:37.024Z,9.74
2018-04-12T05:06:05.311Z,9.85
2018-04-12T05:08:33.622Z,9.98
2018-04-12T05:11:02.705Z,10.09
2018-04-12T05:13:31.013Z,10.21
2018-04-12T05:16:00.091Z,10.34
2018-04-12T05:18:28.410Z,10.43
2018-04-12T05:20:56.741Z,10.52
2018-04-12T05:23:25.145Z,10.63
2018-04-12T05:25:54.215Z,10.69
2018-04-12T05:28:22.553Z,10.76
2018-04-12T05:30:50.871Z,10.82
2018-04-12T05:33:19.184Z,10.87
2018-04-12T05:35:48.273Z,10.99
2018-04-12T05:38:18.367Z,11.06
2018-04-12T05:40:46.687Z,11.12
2018-04-12T05:43:15.755Z,11.17
2018-04-12T05:45:44.057Z,11.26
2018-04-12T05:48:12.393Z,11.32
2018-04-12T05:50:40.708Z,11.34
2018-04-12T05:53:09.022Z,11.40
2018-04-12T05:55:37.318Z,11.45
2018-04-12T05:58:05.636Z,11.50
2018-04-12T06:00:33.942Z,11.56
2018-04-12T06:03:02.264Z,11.62
2018-04-12T06:05:30.623Z,11.67
2018-04-12T06:07:58.941Z,11.73
2018-04-12T06:10:27.311Z,11.79
2018-04-12T06:12:55.623Z,11.90
2018-04-12T06:15:23.917Z,12.01
2018-04-12T06:17:52.219Z,12.05
2018-04-12T06:20:21.324Z,12.10
2018-04-12T06:22:50.467Z,12.21
2018-04-12T06:25:18.801Z,12.35
2018-04-12T06:27:47.893Z,12.50
2018-04-12T06:30:16.992Z,12.59
2018-04-12T06:32:46.095Z,12.69
2018-04-12T06:35:15.243Z,12.77
2018-04-12T06:37:43.601Z,12.90
2018-04-12T06:40:11.915Z,12.99
2018-04-12T06:42:40.221Z,13.07
2018-04-12T06:45:08.525Z,13.11
2018-04-12T06:47:36.859Z,13.18
2018-04-12T06:50:05.242Z,13.23
2018-04-12T06:52:33.593Z,13.28
2018-04-12T06:55:01.913Z,13.36
2018-04-12T06:57:30.214Z,13.43
2018-04-12T06:59:58.546Z,13.51
2018-04-12T07:02:26.844Z,13.63
2018-04-12T07:04:55.177Z,13.62
2018-04-12T07:07:24.255Z,13.66
2018-04-12T07:09:52.552Z,13.77
2018-04-12T07:12:21.540Z,13.89
2018-04-12T07:14:50.853Z,13.98
2018-04-12T07:17:19.937Z,13.97
2018-04-12T07:19:49.032Z,13.98
2018-04-12T07:22:17.352Z,14.05
2018-04-12T07:24:45.661Z,14.08
2018-04-12T07:27:13.982Z,14.08
2018-04-12T07:29:43.077Z,14.12
2018-04-12T07:32:12.154Z,14.09
2018-04-12T07:34:40.571Z,14.08
2018-04-12T07:37:09.262Z,14.11
2018-04-12T07:39:38.341Z,14.14
2018-04-12T07:42:06.660Z,14.15
2018-04-12T07:44:34.961Z,14.19
2018-04-12T07:47:03.303Z,14.25
2018-04-12T07:49:32.378Z,14.31
2018-04-12T07:52:01.445Z,14.36
2018-04-12T07:54:29.767Z,14.42
2018-04-12T07:56:58.852Z,14.45
2018-04-12T07:59:27.174Z,14.46
2018-04-12T08:01:55.492Z,14.53
2018-04-12T08:04:23.812Z,14.57
2018-04-12T08:06:52.909Z,14.82
2018-04-12T08:09:21.994Z,14.78
2018-04-12T08:11:50.308Z,14.80
2018-04-12T08:14:18.619Z,14.86
2018-04-12T08:16:46.974Z,14.78
2018-04-12T08:19:15.281Z,14.69
2018-04-12T08:21:43.734Z,14.89
2018-04-12T08:24:12.029Z,15.16
2018-04-12T08:26:40.440Z,15.52
2018-04-12T08:29:08.779Z,15.72
2018-04-12T08:31:37.095Z,15.83
2018-04-12T08:34:05.419Z,15.97
2018-04-12T08:36:34.530Z,16.23
2018-04-12T08:39:03.683Z,16.38
2018-04-12T08:41:31.995Z,16.51
2018-04-12T08:44:00.321Z,16.67
2018-04-12T08:46:28.639Z,16.83
2018-04-12T08:48:56.975Z,16.75
2018-04-12T08:51:25.287Z,16.77
2018-04-12T08:53:53.668Z,17.21
2018-04-12T08:56:21.983Z,17.38
2018-04-12T08:58:50.299Z,17.67
2018-04-12T09:01:18.669Z,17.94
2018-04-12T09:03:46.940Z,18.09
2018-04-12T09:06:16.012Z,18.14
2018-04-12T09:08:44.363Z,18.27
2018-04-12T09:11:12.694Z,18.45
2018-04-12T09:13:41.758Z,18.46
2018-04-12T09:16:10.874Z,18.20
2018-04-12T09:18:39.168Z,18.08
2018-04-12T09:21:07.468Z,18.15
2018-04-12T09:23:36.572Z,18.10
2018-04-12T09:26:04.878Z,18.01
2018-04-12T09:28:33.199Z,17.85
2018-04-12T09:31:01.529Z,17.93
2018-04-12T09:33:29.862Z,18.02
2018-04-12T09:35:58.191Z,18.04
2018-04-12T09:38:26.532Z,17.96
2018-04-12T09:40:54.853Z,17.97
2018-04-12T09:43:23.179Z,17.88
2018-04-12T09:45:53.455Z,17.85
2018-04-12T09:48:21.780Z,17.82
2018-04-12T09:50:50.106Z,17.96
2018-04-12T09:53:18.421Z,18.15
2018-04-12T09:55:46.730Z,18.16
2018-04-12T09:58:15.787Z,18.14
2018-04-12T10:00:59.085Z,18.11
2018-04-12T10:03:35.651Z,18.06
2018-04-12T10:06:06.256Z,18.19
2018-04-12T10:08:35.610Z,18.21
2018-04-12T10:11:04.114Z,18.23
2018-04-12T10:13:32.429Z,18.19
2018-04-12T10:16:01.519Z,18.42
2018-04-12T10:18:29.839Z,18.64
2018-04-12T10:20:58.971Z,18.78
2018-04-12T10:23:27.312Z,18.99
2018-04-12T10:25:56.409Z,18.73
2018-04-12T10:28:25.503Z,18.49
2018-04-12T10:30:57.365Z,18.32
2018-04-12T10:33:40.910Z,18.19
2018-04-12T10:36:14.978Z,18.18
2018-04-12T10:38:43.318Z,18.36
2018-04-12T10:41:14.136Z,18.32
2018-04-12T10:43:45.528Z,18.52
2018-04-12T10:46:14.254Z,18.89
2018-04-12T10:48:43.180Z,19.32
2018-04-12T10:51:11.496Z,19.24
2018-04-12T10:53:39.866Z,19.24
2018-04-12T10:56:08.213Z,19.22
2018-04-12T10:58:36.571Z,19.19
2018-04-12T11:01:04.959Z,19.36
2018-04-12T11:03:34.619Z,19.46
2018-04-12T11:06:03.861Z,19.49
2018-04-12T11:08:34.153Z,19.77
2018-04-12T11:11:05.815Z,20.27
2018-04-12T11:13:34.330Z,21.01
2018-04-12T11:16:02.668Z,21.44
2018-04-12T11:18:31.071Z,21.62
2018-04-12T11:20:59.315Z,21.54
2018-04-12T11:23:27.701Z,21.94
2018-04-12T11:25:56.764Z,22.44
2018-04-12T11:28:25.635Z,22.93
2018-04-12T11:31:08.300Z,23.12
2018-04-12T11:33:39.094Z,23.51
2018-04-12T11:36:08.420Z,23.81
2018-04-12T11:38:37.509Z,24.00
2018-04-12T11:41:06.362Z,24.38
2018-04-12T11:43:38.802Z,24.52
2018-04-12T11:46:08.387Z,24.15
2018-04-12T11:48:37.902Z,23.85
2018-04-12T11:51:06.216Z,23.51
2018-04-12T11:53:34.533Z,23.10
2018-04-12T11:56:02.860Z,22.74
2018-04-12T11:58:31.495Z,22.64
2018-04-12T12:00:59.933Z,22.75
2018-04-12T12:03:30.215Z,22.80
2018-04-12T12:05:58.540Z,22.77
2018-04-12T12:08:27.632Z,22.80
2018-04-12T12:10:56.823Z,22.76
2018-04-12T12:13:25.346Z,22.81
2018-04-12T12:15:53.677Z,22.79
2018-04-12T12:18:22.014Z,22.84
2018-04-12T12:20:50.329Z,22.80
2018-04-12T12:23:18.809Z,22.50
2018-04-12T12:25:47.135Z,22.34
2018-04-12T12:28:16.250Z,22.13
2018-04-12T12:30:45.993Z,21.89
2018-04-12T12:33:14.305Z,21.76
2018-04-12T12:35:42.643Z,21.77
2018-04-12T12:38:10.969Z,21.57
2018-04-12T12:40:39.287Z,21.40
2018-04-12T12:43:07.604Z,21.03
2018-04-12T12:45:35.928Z,20.55
2018-04-12T12:48:05.018Z,20.17
2018-04-12T12:50:33.408Z,19.75
2018-04-12T12:53:02.484Z,19.35
2018-04-12T12:55:30.799Z,19.05
2018-04-12T12:57:59.885Z,18.81
2018-04-12T13:00:37.132Z,18.65
2018-04-12T13:03:06.369Z,18.56
2018-04-12T13:05:35.504Z,18.49
2018-04-12T13:08:03.848Z,18.32
2018-04-12T13:10:32.194Z,18.16
2018-04-12T13:13:00.544Z,17.90
2018-04-12T13:15:28.926Z,17.74
2018-04-12T13:17:57.265Z,17.59
2018-04-12T13:20:25.593Z,17.44
2018-04-12T13:22:53.902Z,17.34
2018-04-12T13:25:22.272Z,17.36
2018-04-12T13:27:50.812Z,17.44
2018-04-12T13:30:19.279Z,17.54
2018-04-12T13:32:47.755Z,17.61
2018-04-12T13:35:16.065Z,17.55
2018-04-12T13:37:45.902Z,17.43
2018-04-12T13:40:14.227Z,17.25
2018-04-12T13:42:42.595Z,17.09
2018-04-12T13:45:10.911Z,16.94
2018-04-12T13:47:39.222Z,16.79
2018-04-12T13:50:07.528Z,16.68
2018-04-12T13:52:47.872Z,16.58
2018-04-12T13:55:20.059Z,16.48
2018-04-12T13:57:48.405Z,16.42
2018-04-12T14:00:19.212Z,16.35
2018-04-12T14:02:47.941Z,16.15
2018-04-12T14:05:16.254Z,15.99
2018-04-12T14:07:44.558Z,15.89
2018-04-12T14:10:12.982Z,15.89
2018-04-12T14:12:41.307Z,16.00
2018-04-12T14:15:09.617Z,16.06
2018-04-12T14:17:41.573Z,16.33
2018-04-12T14:20:09.896Z,16.61
2018-04-12T14:22:38.604Z,16.88
2018-04-12T14:25:06.944Z,17.13
2018-04-12T14:27:36.475Z,17.42
2018-04-12T14:30:04.816Z,17.64
2018-04-12T14:32:33.308Z,17.73
2018-04-12T14:35:02.404Z,17.70
2018-04-12T14:37:31.165Z,17.81
2018-04-12T14:39:59.839Z,17.99
2018-04-12T14:42:28.339Z,18.25
2018-04-12T14:44:56.681Z,18.48
2018-04-12T14:47:25.089Z,18.64
2018-04-12T14:49:53.503Z,18.78
2018-04-12T14:52:21.813Z,19.00
2018-04-12T14:54:50.176Z,19.33
2018-04-12T14:57:18.520Z,19.79
2018-04-12T14:59:46.851Z,20.44
2018-04-12T15:02:15.798Z,21.38
2018-04-12T15:04:44.121Z,22.20
2018-04-12T15:07:13.213Z,23.11
2018-04-12T15:09:41.542Z,24.32
2018-04-12T15:12:09.895Z,25.67
2018-04-12T15:14:38.975Z,27.15
2018-04-12T15:17:07.311Z,28.58
2018-04-12T15:19:35.637Z,29.62
2018-04-12T15:22:04.011Z,29.55
2018-04-12T15:24:32.840Z,28.55
2018-04-12T15:27:01.959Z,27.33
2018-04-12T15:29:30.320Z,26.71
2018-04-12T15:31:59.500Z,26.39
2018-04-12T15:34:27.796Z,25.45
2018-04-12T15:36:56.877Z,24.01
2018-04-12T15:39:25.196Z,22.83
2018-04-12T15:41:53.497Z,21.81
2018-04-12T15:44:21.796Z,20.87
2018-04-12T15:46:50.419Z,20.07
2018-04-12T15:49:19.550Z,19.37
2018-04-12T15:51:47.857Z,18.87
2018-04-12T15:54:16.155Z,18.54
2018-04-12T15:56:44.461Z,18.32
2018-04-12T15:59:12.818Z,18.19
2018-04-12T16:01:41.154Z,18.07
2018-04-12T16:04:09.587Z,17.87
2018-04-12T16:06:37.883Z,17.62
2018-04-12T16:09:06.230Z,17.39
2018-04-12T16:11:35.935Z,17.22
2018-04-12T16:14:04.297Z,17.08
2018-04-12T16:16:33.346Z,16.92
2018-04-12T16:19:01.678Z,16.76
2018-04-12T16:21:30.241Z,16.60
2018-04-12T16:23:59.427Z,16.52
2018-04-12T16:26:27.789Z,16.46
2018-04-12T16:28:56.128Z,16.42
2018-04-12T16:31:24.451Z,16.40
2018-04-12T16:33:52.771Z,16.42
2018-04-12T16:36:21.916Z,16.46
2018-04-12T16:38:50.222Z,16.53
2018-04-12T16:41:18.529Z,16.58
2018-04-12T16:43:47.601Z,16.63
2018-04-12T16:46:15.923Z,16.64
2018-04-12T16:48:44.279Z,16.59
2018-04-12T16:51:12.589Z,16.51
2018-04-12T16:53:40.909Z,16.41
2018-04-12T16:56:09.237Z,16.35
2018-04-12T16:58:38.302Z,16.28
2018-04-12T17:01:06.624Z,16.23
2018-04-12T17:03:34.979Z,16.19
2018-04-12T17:06:03.308Z,16.21
2018-04-12T17:08:31.632Z,16.20
2018-04-12T17:11:00.244Z,16.07
2018-04-12T17:13:30.100Z,15.88
2018-04-12T17:15:58.419Z,15.65
2018-04-12T17:18:28.266Z,15.42
2018-04-12T17:20:58.685Z,15.20
2018-04-12T17:23:28.348Z,14.99
2018-04-12T17:25:56.802Z,14.80
2018-04-12T17:28:25.099Z,14.63
2018-04-12T17:30:53.406Z,14.50
2018-04-12T17:33:21.718Z,14.39
2018-04-12T17:35:50.068Z,14.29
2018-04-12T17:38:25.629Z,14.19
2018-04-12T17:40:55.911Z,14.10
2018-04-12T17:43:24.771Z,14.04
2018-04-12T17:45:57.085Z,13.96
2018-04-12T17:48:25.494Z,13.86
2018-04-12T17:50:56.140Z,13.77
2018-04-12T17:53:30.658Z,13.69
2018-04-12T17:56:01.446Z,13.58
2018-04-12T17:58:59.099Z,13.48
2018-04-12T18:01:30.018Z,13.36
2018-04-12T18:04:02.764Z,13.27
2018-04-12T18:06:36.199Z,13.14
2018-04-12T18:09:07.646Z,13.07
2018-04-12T18:11:42.377Z,12.99
2018-04-12T18:14:23.183Z,12.90
2018-04-12T18:17:16.193Z,12.80
2018-04-12T18:19:50.823Z,12.70
2018-04-12T18:22:19.296Z,12.59
2018-04-12T18:24:48.655Z,12.50
2018-04-12T18:27:29.040Z,12.39
2018-04-12T18:29:58.384Z,12.30
2018-04-12T18:32:27.074Z,12.23
2018-04-12T18:34:55.660Z,12.19
2018-04-12T18:37:24.186Z,12.20
2018-04-12T18:39:52.774Z,12.15
2018-04-12T18:42:21.445Z,12.13
2018-04-12T18:44:49.990Z,12.11
2018-04-12T18:47:18.379Z,12.06
2018-04-12T18:49:47.461Z,12.08
2018-04-12T18:52:16.227Z,12.03
2018-04-12T18:54:44.552Z,12.03
2018-04-12T18:57:14.136Z,12.02
2018-04-12T18:59:42.862Z,12.02
2018-04-12T19:02:11.992Z,12.02
2018-04-12T19:04:40.353Z,12.02
2018-04-12T19:07:12.426Z,12.05
2018-04-12T19:09:44.946Z,12.11
2018-04-12T19:12:13.270Z,12.18
2018-04-12T19:14:41.580Z,12.25
2018-04-12T19:17:10.131Z,12.28
2018-04-12T19:19:39.219Z,12.31
2018-04-12T19:22:08.291Z,12.33
2018-04-12T19:24:37.550Z,12.37
2018-04-12T19:27:06.110Z,12.41
2018-04-12T19:29:54.410Z,12.45
2018-04-12T19:32:22.796Z,12.44
2018-04-12T19:34:51.202Z,12.47
2018-04-12T19:37:19.535Z,12.47
2018-04-12T19:39:47.868Z,12.48
2018-04-12T19:42:16.203Z,12.49
2018-04-12T19:44:44.563Z,12.52
2018-04-12T19:47:12.965Z,12.55
2018-04-12T19:49:41.399Z,12.56
2018-04-12T19:52:10.173Z,12.59
2018-04-12T19:54:38.577Z,12.61
2018-04-12T19:57:07.018Z,12.64
2018-04-12T19:59:35.346Z,12.63
2018-04-12T20:02:04.491Z,12.62
2018-04-12T20:04:32.870Z,12.61
2018-04-12T20:07:01.255Z,12.59
2018-04-12T20:09:29.594Z,12.59
2018-04-12T20:11:57.908Z,12.57
2018-04-12T20:14:26.215Z,12.58
2018-04-12T20:16:54.521Z,12.58
2018-04-12T20:19:22.855Z,12.56
2018-04-12T20:21:51.164Z,12.55
2018-04-12T20:24:19.494Z,12.53
2018-04-12T20:26:48.583Z,12.52
2018-04-12T20:29:16.962Z,12.53
2018-04-12T20:31:46.043Z,12.55
2018-04-12T20:34:14.349Z,12.56
2018-04-12T20:36:42.813Z,12.53
2018-04-12T20:39:11.112Z,12.51
2018-04-12T20:41:40.194Z,12.51
2018-04-12T20:44:08.639Z,12.50
2018-04-12T20:46:37.740Z,12.49
2018-04-12T20:49:06.121Z,12.47
2018-04-12T20:51:34.462Z,12.46
2018-04-12T20:54:03.550Z,12.48
2018-04-12T20:56:31.912Z,12.51
2018-04-12T20:59:00.209Z,12.49
2018-04-12T21:01:29.270Z,12.48
2018-04-12T21:03:57.610Z,12.49
2018-04-12T21:06:25.946Z,12.47
2018-04-12T21:08:54.447Z,12.47
2018-04-12T21:11:22.774Z,12.49
2018-04-12T21:13:51.093Z,12.49
2018-04-12T21:16:19.406Z,12.48
2018-04-12T21:18:47.716Z,12.45
2018-04-12T21:21:16.036Z,12.42
2018-04-12T21:23:44.366Z,12.39
2018-04-12T21:26:13.492Z,12.33
2018-04-12T21:28:42.769Z,12.25
2018-04-12T21:31:11.224Z,12.15
2018-04-12T21:33:47.391Z,12.02
2018-04-12T21:36:15.711Z,11.87
2018-04-12T21:38:46.277Z,11.74
2018-04-12T21:41:15.260Z,11.67
2018-04-12T21:43:44.050Z,11.59
2018-04-12T21:46:12.502Z,11.47
2018-04-12T21:48:44.635Z,11.38
2018-04-12T21:51:13.002Z,11.30
2018-04-12T21:53:41.868Z,11.25
2018-04-12T21:56:10.308Z,11.15
2018-04-12T21:58:38.620Z,11.07
2018-04-12T22:01:07.143Z,10.99
2018-04-12T22:03:35.432Z,10.97
2018-04-12T22:06:03.756Z,11.01
2018-04-12T22:08:32.827Z,11.00
2018-04-12T22:11:01.244Z,10.98
2018-04-12T22:13:30.365Z,11.00
2018-04-12T22:16:01.001Z,10.98
2018-04-12T22:18:46.927Z,10.93
2018-04-12T22:21:20.051Z,10.91
2018-04-12T22:24:02.677Z,10.93
2018-04-12T22:26:34.877Z,10.92
2018-04-12T22:29:03.250Z,10.89
2018-04-12T22:31:31.564Z,10.90
2018-04-12T22:33:59.876Z,10.92
2018-04-12T22:36:29.005Z,10.95
2018-04-12T22:38:57.316Z,10.96
2018-04-12T22:41:25.618Z,10.97
2018-04-12T22:43:53.931Z,10.96
2018-04-12T22:46:23.173Z,10.89
2018-04-12T22:48:51.530Z,10.86
2018-04-12T22:51:19.835Z,10.81
2018-04-12T22:53:48.163Z,10.77
2018-04-12T22:56:16.608Z,10.74
2018-04-12T22:58:44.952Z,10.68
2018-04-12T23:01:14.254Z,10.67
2018-04-12T23:03:42.601Z,10.71
2018-04-12T23:06:10.937Z,10.81
2018-04-12T23:08:39.281Z,10.97
2018-04-12T23:11:07.587Z,11.11
2018-04-12T23:13:35.899Z,11.22
2018-04-12T23:16:04.281Z,11.31
2018-04-12T23:18:32.618Z,11.37
2018-04-12T23:21:01.696Z,11.43
2018-04-12T23:23:30.133Z,11.42
2018-04-12T23:25:58.438Z,11.46
2018-04-12T23:28:26.786Z,11.55
2018-04-12T23:30:55.159Z,11.67
2018-04-12T23:33:24.251Z,11.78
2018-04-12T23:35:53.513Z,11.88
2018-04-12T23:38:21.844Z,12.00
2018-04-12T23:40:50.932Z,12.10
2018-04-12T23:43:20.023Z,12.19
2018-04-12T23:45:48.357Z,12.27
2018-04-12T23:48:16.664Z,12.32
2018-04-12T23:50:44.975Z,12.38
2018-04-12T23:53:14.053Z,12.43
2018-04-12T23:55:42.375Z,12.46
2018-04-12T23:58:10.679Z,12.44
